Time;durP1;ratioP1;P1;durP2;ratioP2;P2;SDS_P1;SDS_P2;PMS_P1;PMS_P2;Temp;Humidity;BMP_temperature;BMP_pressure;BME280_temperature;BME280_humidity;BME280_pressure;Samples;Min_cycle;Max_cycle;Signal;HPM_P1;HPM_P2
2022/08/02 00:00:42;;;;;;;5.57;2.08;;;14.00;99.90;;;;;;5053989;28;20098;-71
2022/08/02 00:03:08;;;;;;;6.45;1.90;;;13.90;99.90;;;;;;5077215;28;20122;-71
2022/08/02 00:05:34;;;;;;;6.03;2.00;;;13.90;99.90;;;;;;5095924;28;20040;-70
2022/08/02 00:08:00;;;;;;;5.95;2.00;;;14.00;99.90;;;;;;5095767;28;20054;-70
2022/08/02 00:10:26;;;;;;;5.75;1.77;;;13.90;99.90;;;;;;5074616;28;20055;-70
2022/08/02 00:12:52;;;;;;;5.32;2.10;;;14.00;99.90;;;;;;5051090;28;20363;-70
2022/08/02 00:15:18;;;;;;;5.32;2.00;;;14.00;99.90;;;;;;5077687;28;20071;-70
2022/08/02 00:17:44;;;;;;;5.97;2.30;;;13.90;99.90;;;;;;5077003;28;20076;-72
2022/08/02 00:20:11;;;;;;;7.47;2.40;;;13.90;99.90;;;;;;5096136;28;20090;-71
2022/08/02 00:22:37;;;;;;;6.45;2.25;;;13.90;99.90;;;;;;5077648;28;20056;-70
2022/08/02 00:25:03;;;;;;;6.22;2.33;;;13.80;99.90;;;;;;5095200;28;20054;-70
2022/08/02 00:27:29;;;;;;;6.35;2.20;;;13.80;99.90;;;;;;5077908;28;20056;-71
2022/08/02 00:29:55;;;;;;;6.47;2.60;;;13.80;99.90;;;;;;5077729;28;20055;-70
2022/08/02 00:32:22;;;;;;;9.13;3.40;;;13.70;99.90;;;;;;5068376;28;20494;-72
2022/08/02 00:34:48;;;;;;;9.80;3.85;;;13.60;99.90;;;;;;5052788;28;20051;-71
2022/08/02 00:37:14;;;;;;;6.75;2.60;;;13.60;99.90;;;;;;5073846;28;20483;-70
2022/08/02 00:39:41;;;;;;;6.57;2.40;;;13.60;99.90;;;;;;5070569;28;20055;-70
2022/08/02 00:42:07;;;;;;;7.72;2.92;;;13.60;99.90;;;;;;5063363;28;20441;-71
2022/08/02 00:44:32;;;;;;;5.40;2.10;;;13.60;99.90;;;;;;5094997;28;20033;-71
2022/08/02 00:46:58;;;;;;;8.07;3.25;;;13.60;99.90;;;;;;5060571;28;20044;-70
2022/08/02 00:49:24;;;;;;;7.13;3.08;;;13.60;99.90;;;;;;5090110;28;20040;-71
2022/08/02 00:51:50;;;;;;;6.43;3.00;;;13.60;99.90;;;;;;5090025;28;20048;-70
2022/08/02 00:54:16;;;;;;;11.95;5.00;;;13.60;99.90;;;;;;5111115;28;20071;-71
2022/08/02 00:56:41;;;;;;;12.00;4.90;;;13.60;99.90;;;;;;5061074;28;20052;-71
2022/08/02 00:59:07;;;;;;;11.52;4.88;;;13.50;99.90;;;;;;5072520;28;20076;-71
2022/08/02 01:01:39;;;;;;;8.13;4.13;;;13.40;99.90;;;;;;5051620;28;20062;-70
2022/08/02 01:04:06;;;;;;;;;;;13.30;99.90;;;;;;5092762;28;20123;-70
2022/08/02 01:06:32;;;;;;;8.27;3.30;;;13.30;99.90;;;;;;5092950;28;19924;-70
2022/08/02 01:08:59;;;;;;;8.20;3.70;;;13.20;99.90;;;;;;5075528;28;20044;-69
2022/08/02 01:11:25;;;;;;;7.55;3.13;;;13.20;99.90;;;;;;5077115;28;20048;-70
2022/08/02 01:13:51;;;;;;;8.13;4.22;;;13.20;99.90;;;;;;5073724;28;20051;-70
2022/08/02 01:16:22;;;;;;;8.98;4.15;;;13.10;99.90;;;;;;5072685;28;20048;-71
2022/08/02 01:18:54;;;;;;;8.40;3.40;;;13.10;99.90;;;;;;5072608;28;20095;-70
2022/08/02 01:21:48;;;;;;;8.02;4.10;;;13.10;99.90;;;;;;5053869;28;20121;-70
2022/08/02 01:24:52;;;;;;;11.63;4.82;;;13.10;99.90;;;;;;5094531;28;20093;-70
2022/08/02 01:27:46;;;;;;;10.05;4.50;;;13.10;99.90;;;;;;5067577;28;20054;-70
2022/08/02 01:30:13;;;;;;;12.05;5.07;;;13.00;99.90;;;;;;5060107;28;20059;-71
2022/08/02 01:32:43;;;;;;;13.18;4.57;;;12.90;99.90;;;;;;5059224;28;20044;-70
2022/08/02 01:35:15;;;;;;;11.85;4.70;;;12.90;99.90;;;;;;5090810;28;20060;-69
2022/08/02 01:37:52;;;;;;;14.05;5.00;;;12.80;99.90;;;;;;5062730;28;20053;-70
2022/08/02 01:40:33;;;;;;;10.35;4.95;;;12.80;99.90;;;;;;5073099;28;20147;-70
2022/08/02 01:43:00;;;;;;;12.38;5.32;;;12.80;99.90;;;;;;5065536;28;20045;-70
2022/08/02 01:45:31;;;;;;;10.90;5.15;;;12.80;99.90;;;;;;5073175;28;20063;-70
2022/08/02 01:47:59;;;;;;;10.67;5.03;;;12.70;99.90;;;;;;5075263;28;20048;-70
2022/08/02 01:50:28;;;;;;;10.75;5.05;;;12.70;99.90;;;;;;5056994;28;20047;-71
2022/08/02 01:52:58;;;;;;;10.25;5.03;;;12.60;99.90;;;;;;5073669;28;20059;-70
2022/08/02 01:55:29;;;;;;;12.07;5.28;;;12.60;99.90;;;;;;5072848;28;20418;-70
2022/08/02 01:57:58;;;;;;;12.95;5.25;;;12.60;99.90;;;;;;5073833;28;20271;-70
2022/08/02 02:00:27;;;;;;;13.35;5.35;;;12.50;99.90;;;;;;5074973;28;20067;-70
2022/08/02 02:02:55;;;;;;;10.15;4.50;;;12.50;99.90;;;;;;5072791;28;20048;-70
2022/08/02 02:05:24;;;;;;;8.40;3.22;;;12.40;99.90;;;;;;5074798;28;20039;-70
2022/08/02 02:07:55;;;;;;;12.05;3.22;;;12.40;99.90;;;;;;5071808;28;20044;-70
2022/08/02 02:10:29;;;;;;;8.77;3.88;;;12.50;99.90;;;;;;5075198;28;20533;-70
2022/08/02 02:12:57;;;;;;;9.38;4.30;;;12.50;99.90;;;;;;5092701;28;20093;-70
2022/08/02 02:15:24;;;;;;;7.78;3.40;;;12.50;99.90;;;;;;5075191;28;20521;-70
2022/08/02 02:17:52;;;;;;;11.38;4.57;;;12.50;99.90;;;;;;5072364;28;20132;-70
2022/08/02 02:20:20;;;;;;;9.82;3.88;;;12.50;99.90;;;;;;5058872;28;20040;-71
2022/08/02 02:22:47;;;;;;;8.65;3.33;;;12.50;99.90;;;;;;5088683;28;20488;-71
2022/08/02 02:25:14;;;;;;;8.90;3.72;;;12.60;99.90;;;;;;5073536;28;20399;-71
2022/08/02 02:27:54;;;;;;;9.32;4.10;;;12.60;99.90;;;;;;5074052;28;20451;-70
2022/08/02 02:30:22;;;;;;;11.02;5.20;;;12.50;99.90;;;;;;5073976;28;20062;-71
2022/08/02 02:32:50;;;;;;;14.93;5.72;;;12.50;99.90;;;;;;5071683;28;20047;-71
2022/08/02 02:35:16;;;;;;;11.70;5.70;;;12.50;99.90;;;;;;5074850;28;20040;-70
2022/08/02 02:37:44;;;;;;;14.10;5.63;;;12.40;99.90;;;;;;5058129;28;20109;-70
2022/08/02 02:40:11;;;;;;;13.63;6.15;;;12.30;99.90;;;;;;5057824;28;20051;-71
2022/08/02 02:42:38;;;;;;;12.35;5.78;;;12.30;99.90;;;;;;5073597;28;20056;-70
2022/08/02 02:45:05;;;;;;;10.93;5.65;;;12.20;99.90;;;;;;5074729;28;20044;-69
2022/08/02 02:47:32;;;;;;;11.63;5.50;;;12.10;99.90;;;;;;5072175;28;20062;-71
2022/08/02 02:49:58;;;;;;;13.05;5.82;;;12.10;99.90;;;;;;5108828;28;20055;-70
2022/08/02 02:52:25;;;;;;;12.77;5.80;;;12.10;99.90;;;;;;5071409;28;20048;-70
2022/08/02 02:54:52;;;;;;;11.63;5.45;;;12.20;99.90;;;;;;5072983;28;20060;-70
2022/08/02 02:57:19;;;;;;;8.90;4.68;;;12.10;99.90;;;;;;5073366;28;20044;-70
2022/08/02 02:59:45;;;;;;;9.27;4.10;;;12.10;99.90;;;;;;5073086;28;20475;-70
2022/08/02 03:02:12;;;;;;;10.25;4.30;;;12.10;99.90;;;;;;5055597;28;20051;-70
2022/08/02 03:04:40;;;;;;;8.57;3.53;;;12.10;99.90;;;;;;5072135;28;20479;-70
2022/08/02 03:07:06;;;;;;;10.93;4.47;;;12.20;99.90;;;;;;5038601;28;20047;-69
2022/08/02 03:09:31;;;;;;;13.93;5.75;;;12.20;99.90;;;;;;5072842;28;20048;-69
2022/08/02 03:11:57;;;;;;;13.40;6.22;;;12.20;99.90;;;;;;5073816;28;20461;-69
2022/08/02 03:14:23;;;;;;;12.10;6.22;;;12.30;99.90;;;;;;5091955;28;20089;-70
2022/08/02 03:16:51;;;;;;;12.82;5.97;;;12.30;99.90;;;;;;5072436;28;20048;-70
2022/08/02 03:19:19;;;;;;;10.77;6.13;;;12.20;99.90;;;;;;5072402;28;20052;-70
2022/08/02 03:21:46;;;;;;;11.63;5.90;;;12.10;99.90;;;;;;5055301;28;20056;-70
2022/08/02 03:24:12;;;;;;;10.18;4.60;;;12.00;99.90;;;;;;5095485;28;20036;-69
2022/08/02 03:26:38;;;;;;;13.27;5.30;;;12.00;99.90;;;;;;5096429;28;20116;-70
2022/08/02 03:29:05;;;;;;;10.45;5.43;;;12.00;99.90;;;;;;5044615;28;20509;-69
2022/08/02 03:31:31;;;;;;;9.20;4.63;;;12.00;99.90;;;;;;5061530;28;20501;-69
2022/08/02 03:34:01;;;;;;;11.18;5.60;;;12.00;99.90;;;;;;5095334;28;20048;-69
2022/08/02 03:36:31;;;;;;;11.23;5.43;;;12.10;99.90;;;;;;5078229;28;20055;-70
2022/08/02 03:39:00;;;;;;;13.38;5.85;;;12.10;99.90;;;;;;5061175;28;20051;-70
2022/08/02 03:41:26;;;;;;;14.27;6.15;;;12.10;99.90;;;;;;5077322;28;20047;-70
2022/08/02 03:43:53;;;;;;;11.15;5.75;;;12.10;99.90;;;;;;5077652;28;20056;-70
2022/08/02 03:46:21;;;;;;;12.63;5.97;;;12.00;99.90;;;;;;5078365;28;20048;-70
2022/08/02 03:48:50;;;;;;;13.45;5.57;;;12.00;99.90;;;;;;5077070;28;20048;-70
2022/08/02 03:51:16;;;;;;;12.63;5.57;;;12.10;99.90;;;;;;5096041;28;20047;-70
2022/08/02 03:53:42;;;;;;;14.93;5.53;;;12.20;99.90;;;;;;5071738;28;20067;-69
2022/08/02 03:56:09;;;;;;;11.23;5.95;;;12.20;99.90;;;;;;5093764;28;20044;-70
2022/08/02 03:58:34;;;;;;;12.48;5.85;;;12.20;99.90;;;;;;5095904;28;20093;-70
2022/08/02 04:01:00;;;;;;;11.30;6.18;;;12.10;99.90;;;;;;5096407;28;20081;-70
2022/08/02 04:03:26;;;;;;;12.10;6.05;;;12.10;99.90;;;;;;5077225;28;20513;-69
2022/08/02 04:05:52;;;;;;;10.52;6.00;;;12.00;99.90;;;;;;5096441;28;20498;-69
2022/08/02 04:08:18;;;;;;;14.88;5.90;;;12.10;99.90;;;;;;5077352;28;20055;-69
2022/08/02 04:13:34;;;;;;;13.02;6.57;;;12.20;99.90;;;;;;5095889;28;20063;-69
2022/08/02 04:16:08;;;;;;;12.00;6.30;;;12.30;99.90;;;;;;5063703;28;20056;-69
2022/08/02 04:18:44;;;;;;;15.88;6.13;;;12.40;99.90;;;;;;5086387;28;20098;-70
2022/08/02 04:21:13;;;;;;;13.18;6.07;;;12.40;99.90;;;;;;5057552;28;20047;-70
2022/08/02 04:23:42;;;;;;;14.90;6.50;;;12.40;99.90;;;;;;5095844;28;20084;-68
2022/08/02 04:26:09;;;;;;;13.40;6.40;;;12.50;99.90;;;;;;5063333;28;20048;-70
2022/08/02 04:28:36;;;;;;;14.43;6.13;;;12.50;99.90;;;;;;5074386;28;20041;-69
2022/08/02 04:31:02;;;;;;;12.50;6.28;;;12.50;99.90;;;;;;5067749;28;20044;-70
2022/08/02 04:33:28;;;;;;;13.65;6.68;;;12.50;99.90;;;;;;5052536;28;20150;-70
2022/08/02 04:35:54;;;;;;;14.95;6.90;;;12.60;99.90;;;;;;5077503;28;20052;-71
2022/08/02 04:38:20;;;;;;;14.48;6.53;;;12.70;99.90;;;;;;5060808;28;20048;-69
2022/08/02 04:40:54;;;;;;;12.85;6.57;;;12.70;99.90;;;;;;5074713;28;20563;-70
2022/08/02 04:43:20;;;;;;;12.93;6.68;;;12.70;99.90;;;;;;5067394;28;20052;-69
2022/08/02 04:45:50;;;;;;;14.32;6.22;;;12.70;99.90;;;;;;5060667;28;20101;-70
2022/08/02 04:48:16;;;;;;;15.13;6.78;;;12.70;99.90;;;;;;5076675;28;20040;-71
2022/08/02 04:50:41;;;;;;;13.68;6.70;;;12.80;99.90;;;;;;5059852;28;20052;-70
2022/08/02 04:53:07;;;;;;;13.85;6.80;;;12.80;99.90;;;;;;5063673;28;20051;-70
2022/08/02 04:55:33;;;;;;;16.98;6.50;;;12.90;99.90;;;;;;5060924;28;20044;-71
2022/08/02 04:57:59;;;;;;;14.70;7.03;;;12.90;99.90;;;;;;5072372;28;20098;-69
2022/08/02 05:00:26;;;;;;;12.85;6.38;;;13.00;99.90;;;;;;5090138;28;20074;-71
2022/08/02 05:02:52;;;;;;;12.82;6.40;;;13.10;99.90;;;;;;5059550;28;20047;-70
2022/08/02 05:05:19;;;;;;;12.65;6.40;;;13.20;99.90;;;;;;5086351;28;20044;-71
2022/08/02 05:07:44;;;;;;;12.68;6.47;;;13.20;99.90;;;;;;5070841;28;20051;-70
2022/08/02 05:10:10;;;;;;;12.43;6.68;;;13.30;99.90;;;;;;5104317;28;20044;-71
2022/08/02 05:12:39;;;;;;;12.65;6.57;;;13.40;99.90;;;;;;5106342;28;20372;-70
2022/08/02 05:15:05;;;;;;;14.80;6.80;;;13.40;99.90;;;;;;5057385;28;20397;-71
2022/08/02 05:17:31;;;;;;;15.32;6.70;;;13.50;99.90;;;;;;5075748;28;20452;-72
2022/08/02 05:19:57;;;;;;;12.82;6.50;;;13.60;99.90;;;;;;5076898;28;20044;-71
2022/08/02 05:22:23;;;;;;;13.05;6.65;;;13.70;99.90;;;;;;5076542;28;20070;-70
2022/08/02 05:24:48;;;;;;;13.82;6.47;;;13.80;99.90;;;;;;5076573;28;20032;-71
2022/08/02 05:27:14;;;;;;;13.75;6.60;;;14.00;99.90;;;;;;5077072;28;20112;-70
2022/08/02 05:29:40;;;;;;;11.68;5.90;;;14.20;99.90;;;;;;5076145;28;20062;-71
2022/08/02 05:32:06;;;;;;;12.40;6.15;;;14.60;99.90;;;;;;5094083;28;20048;-70
2022/08/02 05:34:32;;;;;;;11.25;6.30;;;14.90;99.90;;;;;;5093536;28;20089;-71
2022/08/02 05:36:57;;;;;;;12.40;5.75;;;15.40;99.90;;;;;;5075232;28;20052;-70
2022/08/02 05:39:23;;;;;;;13.82;5.70;;;15.70;99.90;;;;;;5109387;28;20044;-72
2022/08/02 05:41:49;;;;;;;15.45;5.93;;;16.30;99.90;;;;;;5056479;28;20505;-72
2022/08/02 05:44:15;;;;;;;13.43;5.03;;;16.70;99.90;;;;;;5109527;28;20036;-71
2022/08/02 05:46:40;;;;;;;14.55;5.22;;;16.90;99.90;;;;;;5041886;28;20482;-71
2022/08/02 05:49:06;;;;;;;12.55;4.90;;;17.20;99.90;;;;;;5091458;28;20123;-71
2022/08/02 05:51:37;;;;;;;10.93;4.15;;;17.60;99.90;;;;;;5076312;28;20083;-72
2022/08/02 05:54:22;;;;;;;13.32;4.85;;;18.10;99.90;;;;;;5059011;28;20044;-73
2022/08/02 05:57:09;;;;;;;13.18;4.25;;;18.30;99.90;;;;;;5094317;28;20052;-71
2022/08/02 05:59:53;;;;;;;11.75;4.50;;;18.50;99.90;;;;;;5075928;28;20056;-71
2022/08/02 06:02:29;;;;;;;11.00;4.43;;;19.20;99.90;;;;;;5074883;28;20044;-75
2022/08/02 06:05:09;;;;;;;10.75;4.88;;;19.80;99.90;;;;;;5093568;28;20036;-72
2022/08/02 06:07:36;;;;;;;9.73;4.28;;;20.10;99.90;;;;;;5075312;28;20729;-72
2022/08/02 06:10:06;;;;;;;12.07;3.95;;;20.50;99.90;;;;;;5073940;28;20054;-74
2022/08/02 06:12:39;;;;;;;10.40;3.70;;;21.30;99.90;;;;;;5072367;28;20067;-72
2022/08/02 06:15:05;;;;;;;8.60;3.78;;;22.10;99.90;;;;;;5074346;28;20048;-72
2022/08/02 06:17:31;;;;;;;9.02;3.53;;;22.00;99.90;;;;;;5091710;28;20040;-73
2022/08/02 06:19:59;;;;;;;9.80;3.20;;;22.40;99.60;;;;;;5075376;28;20097;-73
2022/08/02 06:22:26;;;;;;;8.50;3.22;;;22.50;99.30;;;;;;5075069;28;20059;-72
2022/08/02 06:24:53;;;;;;;10.68;3.13;;;22.70;98.80;;;;;;5052042;28;20487;-73
2022/08/02 06:27:20;;;;;;;9.05;3.28;;;23.10;98.30;;;;;;5075097;28;20557;-73
2022/08/02 06:29:48;;;;;;;8.55;3.05;;;23.00;97.10;;;;;;5052183;28;20474;-71
2022/08/02 06:32:18;;;;;;;8.35;2.92;;;22.70;96.90;;;;;;5074254;28;20563;-72
2022/08/02 06:34:45;;;;;;;7.88;2.92;;;22.60;96.30;;;;;;5075055;28;20085;-71
2022/08/02 06:37:36;;;;;;;8.32;2.70;;;22.90;97.70;;;;;;5075175;28;20051;-71
2022/08/02 06:40:41;;;;;;;8.85;2.88;;;23.40;95.60;;;;;;5093345;28;20084;-72
2022/08/02 06:43:16;;;;;;;8.48;2.75;;;23.80;95.10;;;;;;5040115;28;20056;-72
2022/08/02 06:45:42;;;;;;;8.77;2.60;;;23.70;93.30;;;;;;5052909;28;20212;-71
2022/08/02 06:48:09;;;;;;;8.15;2.63;;;23.80;93.10;;;;;;5096547;28;20124;-72
2022/08/02 06:50:37;;;;;;;8.05;2.80;;;24.20;93.50;;;;;;5081283;28;20466;-74
2022/08/02 06:53:04;;;;;;;8.85;2.75;;;24.00;92.90;;;;;;5076032;28;20044;-73
2022/08/02 06:55:31;;;;;;;10.43;2.85;;;23.80;92.60;;;;;;5074865;28;20071;-73
2022/08/02 06:57:57;;;;;;;9.48;2.60;;;23.90;93.60;;;;;;5090392;28;20111;-72
2022/08/02 07:00:23;;;;;;;8.57;2.90;;;24.40;92.70;;;;;;5074379;28;20040;-72
2022/08/02 07:02:49;;;;;;;8.73;2.50;;;24.20;91.80;;;;;;5073662;28;20181;-72
2022/08/02 07:05:15;;;;;;;8.48;2.63;;;24.20;91.80;;;;;;5090919;28;20044;-72
2022/08/02 07:07:41;;;;;;;8.13;2.53;;;24.00;92.30;;;;;;5088031;28;20043;-71
2022/08/02 07:10:07;;;;;;;8.32;2.80;;;24.20;90.60;;;;;;5058632;28;20059;-72
2022/08/02 07:12:34;;;;;;;7.65;2.53;;;24.00;91.50;;;;;;5055542;28;20052;-73
2022/08/02 07:15:01;;;;;;;9.38;2.58;;;24.00;90.60;;;;;;5093167;28;20044;-73
2022/08/02 07:17:27;;;;;;;10.00;2.70;;;24.00;91.00;;;;;;5091335;28;20127;-74
2022/08/02 07:19:53;;;;;;;9.68;2.60;;;24.20;91.80;;;;;;5071842;28;20047;-71
2022/08/02 07:22:21;;;;;;;8.55;2.35;;;24.40;90.80;;;;;;5074395;28;20050;-72
2022/08/02 07:24:48;;;;;;;8.48;2.40;;;24.40;90.70;;;;;;5092097;28;20048;-72
2022/08/02 07:27:13;;;;;;;7.30;2.38;;;24.50;90.20;;;;;;5072237;28;20043;-72
2022/08/02 07:29:39;;;;;;;9.57;2.47;;;24.80;89.60;;;;;;5071924;28;20123;-72
2022/08/02 07:32:05;;;;;;;6.93;2.15;;;24.80;88.30;;;;;;5073421;28;20078;-74
2022/08/02 07:34:31;;;;;;;6.72;1.90;;;25.00;88.20;;;;;;5073442;28;20056;-72
2022/08/02 07:36:57;;;;;;;6.95;1.80;;;25.20;81.70;;;;;;5092226;28;20501;-72
2022/08/02 07:39:22;;;;;;;5.85;1.80;;;25.20;81.30;;;;;;5091957;28;20055;-72
2022/08/02 07:41:50;;;;;;;8.10;1.83;;;25.10;81.90;;;;;;5092332;28;20437;-74
2022/08/02 07:44:17;;;;;;;6.38;1.85;;;25.10;81.80;;;;;;5057501;28;20040;-73
2022/08/02 07:46:43;;;;;;;7.20;1.90;;;24.80;81.30;;;;;;5072937;28;20064;-72
2022/08/02 07:49:09;;;;;;;7.47;2.08;;;24.40;80.50;;;;;;5090385;28;20093;-72
2022/08/02 07:51:35;;;;;;;7.18;1.85;;;24.30;83.20;;;;;;5073221;28;20052;-74
2022/08/02 07:54:01;;;;;;;7.03;1.90;;;24.50;85.00;;;;;;5087817;28;20040;-73
2022/08/02 07:56:27;;;;;;;6.78;1.90;;;24.90;85.00;;;;;;5090791;28;20055;-73
2022/08/02 07:58:53;;;;;;;7.57;1.83;;;25.10;82.00;;;;;;5090647;28;20469;-75
2022/08/02 08:01:19;;;;;;;6.85;1.80;;;25.40;80.70;;;;;;5090340;28;20393;-73
2022/08/02 08:03:45;;;;;;;5.53;1.65;;;25.50;79.00;;;;;;5087940;28;20097;-72
2022/08/02 08:06:10;;;;;;;6.18;1.40;;;25.50;74.40;;;;;;5067366;28;20045;-79
2022/08/02 08:08:36;;;;;;;5.50;1.63;;;25.50;71.00;;;;;;5018525;28;20063;-72
2022/08/02 08:11:02;;;;;;;6.78;1.40;;;25.50;72.00;;;;;;5091251;28;20643;-73
2022/08/02 08:13:28;;;;;;;6.88;1.60;;;25.70;70.30;;;;;;5073549;28;20398;-75
2022/08/02 08:15:53;;;;;;;7.45;1.67;;;25.80;70.30;;;;;;5090538;28;20040;-74
2022/08/02 08:18:20;;;;;;;5.20;1.50;;;25.80;67.60;;;;;;5090173;28;20040;-77
2022/08/02 08:20:46;;;;;;;5.45;1.40;;;25.70;68.80;;;;;;5075922;28;20402;-73
2022/08/02 08:23:12;;;;;;;7.45;1.60;;;25.80;68.40;;;;;;5075580;28;20044;-74
2022/08/02 08:25:38;;;;;;;9.18;1.80;;;25.80;70.10;;;;;;5093875;28;20044;-73
2022/08/02 08:28:04;;;;;;;6.68;1.70;;;25.80;70.10;;;;;;5092703;28;20128;-76
2022/08/02 08:30:29;;;;;;;7.57;1.80;;;25.80;69.70;;;;;;5074592;28;20115;-72
2022/08/02 08:32:55;;;;;;;8.80;1.70;;;25.90;71.10;;;;;;5058185;28;20139;-74
2022/08/02 08:35:21;;;;;;;7.80;1.83;;;26.00;70.90;;;;;;5074414;28;20089;-74
2022/08/02 08:37:47;;;;;;;6.80;1.70;;;25.90;67.90;;;;;;5074240;28;20511;-76
2022/08/02 08:40:13;;;;;;;5.85;1.63;;;26.00;70.30;;;;;;5091313;28;20048;-76
2022/08/02 08:42:39;;;;;;;7.80;1.80;;;26.20;69.60;;;;;;5074123;28;20108;-74
2022/08/02 08:45:06;;;;;;;5.68;1.50;;;26.40;68.40;;;;;;5092382;28;20493;-84
2022/08/02 08:47:37;;;;;;;5.97;1.60;;;26.50;66.40;;;;;;5074227;28;20134;-74
2022/08/02 08:50:10;;;;;;;5.32;1.80;;;26.60;65.70;;;;;;5076314;28;20040;-74
2022/08/02 08:52:41;;;;;;;6.65;1.77;;;26.50;64.10;;;;;;5092810;28;20056;-78
2022/08/02 08:55:10;;;;;;;7.63;1.77;;;26.40;64.70;;;;;;5075547;28;20059;-73
2022/08/02 08:57:40;;;;;;;6.15;1.80;;;26.10;66.80;;;;;;5059379;28;20052;-73
2022/08/02 09:00:07;;;;;;;5.80;1.60;;;26.10;64.80;;;;;;5074961;28;20513;-76
2022/08/02 09:02:34;;;;;;;5.90;1.60;;;26.00;67.00;;;;;;5072887;28;20059;-75
2022/08/02 09:05:00;;;;;;;7.07;1.80;;;26.10;65.80;;;;;;5071057;28;20503;-75
2022/08/02 09:07:27;;;;;;;5.78;1.70;;;26.20;65.20;;;;;;5090454;28;20052;-73
2022/08/02 09:09:53;;;;;;;5.03;1.60;;;26.20;66.90;;;;;;5103577;27;20625;-74
2022/08/02 09:12:23;;;;;;;4.88;1.50;;;26.30;68.20;;;;;;5072676;28;20048;-75
2022/08/02 09:14:50;;;;;;;6.40;1.40;;;26.40;67.70;;;;;;5057121;28;20048;-72
2022/08/02 09:17:16;;;;;;;5.80;1.70;;;26.50;67.80;;;;;;5058565;28;20047;-72
2022/08/02 09:19:42;;;;;;;5.15;1.77;;;26.70;66.80;;;;;;5075060;28;20051;-73
2022/08/02 09:22:10;;;;;;;6.38;1.70;;;26.80;63.90;;;;;;5073768;28;20043;-76
2022/08/02 09:24:44;;;;;;;6.43;1.60;;;26.80;63.70;;;;;;5073984;28;20055;-72
2022/08/02 09:27:16;;;;;;;5.22;1.65;;;26.80;64.70;;;;;;5057455;28;20044;-72
2022/08/02 09:29:50;;;;;;;22.67;2.55;;;26.90;61.10;;;;;;5072921;28;20040;-72
2022/08/02 09:32:17;;;;;;;6.35;2.03;;;26.90;62.80;;;;;;5075298;28;20127;-73
2022/08/02 09:34:53;;;;;;;7.75;1.50;;;27.00;62.30;;;;;;5056802;28;20093;-75
2022/08/02 09:37:29;;;;;;;6.57;1.70;;;27.10;62.60;;;;;;5071839;28;20052;-73
2022/08/02 09:39:59;;;;;;;6.53;1.80;;;27.20;63.30;;;;;;5074574;28;20517;-75
2022/08/02 09:42:25;;;;;;;6.30;1.58;;;27.40;62.20;;;;;;5057741;28;20047;-71
2022/08/02 09:44:58;;;;;;;6.70;1.90;;;27.50;62.20;;;;;;5071735;28;20048;-73
2022/08/02 09:47:25;;;;;;;7.80;1.92;;;27.60;62.50;;;;;;5107866;28;20047;-73
2022/08/02 09:49:52;;;;;;;9.32;1.90;;;27.80;61.70;;;;;;5071845;28;20113;-76
2022/08/02 09:52:38;;;;;;;6.13;1.80;;;28.00;59.40;;;;;;5072858;28;20131;-78
2022/08/02 09:55:04;;;;;;;5.60;1.70;;;28.00;59.00;;;;;;5073693;28;20048;-74
2022/08/02 09:57:32;;;;;;;7.25;1.60;;;27.90;60.90;;;;;;5055875;28;20356;-74
2022/08/02 09:59:58;;;;;;;5.43;1.50;;;27.90;61.10;;;;;;5073059;28;20051;-77
2022/08/02 10:02:24;;;;;;;7.53;1.92;;;27.90;60.40;;;;;;5072545;28;20047;-76
2022/08/02 10:04:50;;;;;;;15.63;2.20;;;27.70;58.20;;;;;;5071544;28;20042;-75
2022/08/02 10:07:16;;;;;;;5.85;2.00;;;27.40;60.00;;;;;;5090948;28;20471;-74
2022/08/02 10:09:44;;;;;;;5.47;1.92;;;27.30;60.50;;;;;;5072803;28;20103;-75
2022/08/02 10:12:11;;;;;;;6.72;1.90;;;27.40;59.60;;;;;;5072673;28;20585;-74
2022/08/02 10:14:38;;;;;;;4.97;1.80;;;27.40;60.10;;;;;;5091558;28;20188;-76
2022/08/02 10:17:05;;;;;;;7.40;2.03;;;27.50;62.00;;;;;;5073812;28;20059;-74
2022/08/02 10:19:31;;;;;;;12.13;2.50;;;27.70;61.60;;;;;;5072810;28;20040;-76
2022/08/02 10:22:03;;;;;;;7.10;2.50;;;27.70;63.60;;;;;;5073743;28;20555;-76
2022/08/02 10:24:30;;;;;;;6.47;2.42;;;27.80;62.60;;;;;;5091231;28;20071;-76
2022/08/02 10:26:58;;;;;;;7.18;2.55;;;27.80;64.20;;;;;;5055426;28;20044;-76
2022/08/02 10:29:32;;;;;;;6.57;2.72;;;27.80;63.50;;;;;;5091116;28;20119;-78
2022/08/02 10:32:12;;;;;;;24.40;3.22;;;27.70;64.40;;;;;;5070784;28;20087;-76
2022/08/02 10:34:47;;;;;;;7.63;2.50;;;27.70;64.30;;;;;;5081363;28;20435;-77
2022/08/02 10:37:14;;;;;;;6.30;2.47;;;27.70;65.20;;;;;;5050513;28;20048;-75
2022/08/02 10:39:44;;;;;;;5.82;2.30;;;27.80;65.30;;;;;;5067272;28;20466;-77
2022/08/02 10:42:11;;;;;;;11.23;2.90;;;27.80;66.10;;;;;;5078107;28;20052;-77
2022/08/02 10:44:38;;;;;;;7.55;2.55;;;28.00;66.10;;;;;;5067255;28;20041;-75
2022/08/02 10:47:21;;;;;;;6.18;2.50;;;28.10;65.60;;;;;;5066955;28;20105;-75
2022/08/02 10:49:55;;;;;;;6.63;2.67;;;28.30;65.90;;;;;;5065489;28;20072;-77
2022/08/02 10:52:25;;;;;;;7.13;2.40;;;28.40;66.20;;;;;;5066194;28;20059;-78
2022/08/02 10:54:56;;;;;;;6.78;2.60;;;28.60;66.70;;;;;;5067277;28;20123;-75
2022/08/02 10:57:33;;;;;;;7.03;3.03;;;28.80;67.10;;;;;;5068944;28;20124;-76
2022/08/02 11:00:11;;;;;;;8.88;3.30;;;29.00;67.30;;;;;;5096106;28;20524;-76
2022/08/02 11:02:41;;;;;;;8.50;3.03;;;29.00;65.30;;;;;;5050251;28;20059;-75
2022/08/02 11:05:11;;;;;;;9.43;3.08;;;29.00;65.80;;;;;;5066424;28;20048;-77
2022/08/02 11:07:40;;;;;;;6.85;2.80;;;29.20;66.20;;;;;;5068052;28;20076;-75
2022/08/02 11:10:29;;;;;;;7.35;3.10;;;29.20;66.60;;;;;;5047655;28;20059;-74
2022/08/02 11:13:07;;;;;;;6.72;3.20;;;29.40;64.30;;;;;;5068937;28;20137;-74
2022/08/02 11:15:54;;;;;;;9.40;3.50;;;29.30;64.20;;;;;;5064542;28;20044;-75
2022/08/02 11:18:20;;;;;;;8.10;2.83;;;29.20;64.70;;;;;;5063699;28;20079;-76
2022/08/02 11:21:06;;;;;;;7.22;2.92;;;29.30;65.80;;;;;;5065822;28;20086;-77
2022/08/02 11:23:37;;;;;;;7.13;3.00;;;29.40;65.50;;;;;;5063933;28;20048;-76
2022/08/02 11:26:29;;;;;;;7.65;3.00;;;29.40;65.00;;;;;;5065840;28;20078;-77
2022/08/02 11:29:02;;;;;;;8.10;3.38;;;29.40;64.60;;;;;;5066993;28;20495;-73
2022/08/02 11:31:36;;;;;;;10.10;3.22;;;29.40;64.90;;;;;;5068294;28;20124;-74
2022/08/02 11:34:03;;;;;;;7.70;3.50;;;29.50;63.80;;;;;;5064633;28;20080;-74
2022/08/02 11:36:29;;;;;;;9.15;3.20;;;29.50;63.70;;;;;;5077366;28;20109;-73
2022/08/02 11:39:12;;;;;;;6.68;3.70;;;29.40;63.20;;;;;;5089553;28;20456;-79
2022/08/02 11:41:38;;;;;;;9.13;3.30;;;29.20;64.10;;;;;;5072706;28;20087;-74
2022/08/02 11:44:05;;;;;;;8.38;2.95;;;29.20;64.30;;;;;;5055384;28;20126;-74
2022/08/02 11:46:31;;;;;;;5.90;3.38;;;29.30;64.90;;;;;;5093984;28;20124;-72
2022/08/02 11:49:09;;;;;;;6.85;3.45;;;29.20;64.50;;;;;;5056968;28;20052;-78
2022/08/02 11:51:35;;;;;;;8.35;3.20;;;29.20;65.40;;;;;;5091115;28;20044;-76
2022/08/02 11:54:00;;;;;;;6.55;2.80;;;29.30;66.00;;;;;;5057493;28;20040;-75
2022/08/02 11:56:28;;;;;;;9.43;2.85;;;29.30;65.40;;;;;;5093035;28;20040;-75
2022/08/02 11:59:20;;;;;;;8.98;2.70;;;29.30;63.90;;;;;;5075306;28;20052;-77
2022/08/02 12:01:46;;;;;;;5.75;2.38;;;29.20;64.80;;;;;;5070937;28;20052;-75
2022/08/02 12:04:17;;;;;;;5.93;2.30;;;29.30;65.10;;;;;;5090651;28;20054;-77
2022/08/02 12:06:43;;;;;;;5.32;2.30;;;29.50;64.50;;;;;;5074619;28;20060;-79
2022/08/02 12:09:12;;;;;;;5.78;2.00;;;29.60;64.30;;;;;;5057852;28;20048;-77
2022/08/02 12:11:38;;;;;;;6.80;2.30;;;29.80;63.30;;;;;;5074928;28;20047;-73
2022/08/02 12:14:05;;;;;;;5.40;2.40;;;29.90;61.50;;;;;;5072268;28;20048;-74
2022/08/02 12:19:22;;;;;;;6.00;2.30;;;29.60;61.00;;;;;;5090709;28;20075;-73
2022/08/02 12:22:09;;;;;;;6.65;2.40;;;29.20;61.80;;;;;;5056875;28;20059;-77
2022/08/02 12:24:35;;;;;;;6.53;2.10;;;28.90;63.80;;;;;;5102601;28;20043;-78
2022/08/02 12:27:01;;;;;;;4.85;1.90;;;28.80;63.60;;;;;;5092379;28;20055;-77
2022/08/02 12:29:39;;;;;;;4.97;1.83;;;28.70;63.50;;;;;;5071683;28;20044;-74
2022/08/02 12:32:05;;;;;;;4.55;1.60;;;28.60;62.10;;;;;;5088968;28;20114;-78
2022/08/02 12:34:32;;;;;;;4.20;1.70;;;28.60;60.30;;;;;;5088454;28;20501;-77
2022/08/02 12:37:09;;;;;;;4.93;1.60;;;28.60;60.30;;;;;;5075488;28;20070;-75
2022/08/02 12:39:43;;;;;;;6.07;1.80;;;28.60;60.30;;;;;;5107713;28;20120;-75
2022/08/02 12:42:12;;;;;;;4.03;1.80;;;28.60;60.30;;;;;;5057020;28;20084;-78
2022/08/02 12:44:57;;;;;;;5.03;2.00;;;28.50;61.40;;;;;;5107167;28;20564;-80
2022/08/02 12:47:23;;;;;;;5.65;1.92;;;28.50;62.00;;;;;;5057058;28;20075;-79
2022/08/02 12:50:12;;;;;;;4.47;1.90;;;28.50;62.70;;;;;;5091870;28;20047;-78
2022/08/02 12:52:38;;;;;;;4.95;1.90;;;28.70;63.40;;;;;;5091225;28;20048;-80
2022/08/02 12:55:18;;;;;;;4.90;2.08;;;28.80;63.50;;;;;;5089971;28;20043;-74
2022/08/02 12:58:04;;;;;;;6.38;2.15;;;29.00;63.00;;;;;;5071702;28;20060;-78